createdAt,value
2023-03-20T00:02:28.104Z,12.75
2023-03-20T00:05:32.100Z,13.15
2023-03-20T00:07:59.746Z,11.52
2023-03-20T00:10:46.407Z,12.43
2023-03-20T00:13:24.626Z,10.00
2023-03-20T00:15:52.389Z,10.77
2023-03-20T00:18:23.342Z,12.25
2023-03-20T00:20:53.634Z,9.52
2023-03-20T00:23:20.770Z,9.02
2023-03-20T00:25:47.790Z,14.48
2023-03-20T00:28:38.364Z,11.43
2023-03-20T00:31:36.007Z,10.77
2023-03-20T00:34:14.214Z,12.25
2023-03-20T00:36:41.749Z,12.15
2023-03-20T00:39:11.550Z,10.13
2023-03-20T00:41:38.973Z,10.32
2023-03-20T00:44:19.594Z,11.75
2023-03-20T00:46:56.940Z,17.20
2023-03-20T00:49:29.306Z,13.55
2023-03-20T00:51:56.977Z,9.57
2023-03-20T00:54:25.676Z,12.25
2023-03-20T00:57:01.858Z,9.50
2023-03-20T00:59:36.159Z,12.27
2023-03-20T01:02:03.789Z,10.82
2023-03-20T01:04:39.377Z,11.38
2023-03-20T01:07:14.029Z,14.93
2023-03-20T01:09:41.719Z,11.02
2023-03-20T01:12:12.822Z,11.45
2023-03-20T01:14:42.950Z,12.00
2023-03-20T01:17:21.441Z,13.35
2023-03-20T01:19:48.589Z,13.07
2023-03-20T01:22:20.376Z,10.38
2023-03-20T01:24:47.990Z,12.95
2023-03-20T01:27:20.229Z,10.27
2023-03-20T01:30:17.597Z,9.90
2023-03-20T01:32:46.476Z,9.93
2023-03-20T01:35:21.635Z,10.23
2023-03-20T01:37:50.224Z,8.93
2023-03-20T01:40:32.134Z,7.95
2023-03-20T01:43:00.771Z,9.82
2023-03-20T01:45:36.676Z,8.18
2023-03-20T01:48:21.522Z,8.07
2023-03-20T01:50:51.229Z,6.10
2023-03-20T01:53:27.429Z,7.18
2023-03-20T01:56:03.948Z,8.30
2023-03-20T01:58:47.226Z,7.75
2023-03-20T02:01:16.024Z,5.88
2023-03-20T02:03:50.570Z,5.60
2023-03-20T02:06:27.351Z,8.65
2023-03-20T02:09:17.511Z,7.53
2023-03-20T02:11:48.496Z,8.02
2023-03-20T02:14:20.098Z,6.20
2023-03-20T02:16:55.734Z,8.20
2023-03-20T02:20:15.250Z,6.38
2023-03-20T02:23:15.770Z,7.28
2023-03-20T02:26:44.207Z,5.55
2023-03-20T02:29:45.817Z,6.85
2023-03-20T02:32:52.617Z,4.22
2023-03-20T02:35:49.110Z,6.55
2023-03-20T02:38:30.907Z,7.88
2023-03-20T02:41:32.887Z,4.05
2023-03-20T02:44:36.646Z,8.32
2023-03-20T02:47:23.777Z,7.50
2023-03-20T02:50:33.106Z,5.10
2023-03-20T02:53:20.417Z,5.28
2023-03-20T02:56:20.242Z,6.65
2023-03-20T02:58:58.569Z,6.85
2023-03-20T03:01:41.251Z,8.52
